Airport Name : Zinder

Other Name : Zinder

ICAO : DRZR

IATA : ZND

FAA :

Latitude : 13.778997

Longitude : 8.983761

Country : Niger

Local Date and Time : 17 Oct 2021 06:49

 

TAF (Terminal Aerodrome Forecast)

TAF DRZR 170500Z 1706/1806 08010KT 8000 FEW030 PROB30 TEMPO 1706/1710 TS FEW040CB

 

METAR (METeorological Aerodrome Report)

DRZR 170500Z 08005KT 040V110 CAVOK 25/22 Q1012

To Charter a Jet Click here.